createdAt,value
2019-02-17T00:01:56.611Z,78.90
2019-02-17T00:04:28.356Z,78.81
2019-02-17T00:07:00.443Z,78.89
2019-02-17T00:09:32.272Z,78.95
2019-02-17T00:12:04.022Z,79.35
2019-02-17T00:14:35.843Z,79.60
2019-02-17T00:17:07.675Z,79.84
2019-02-17T00:19:39.747Z,79.93
2019-02-17T00:22:11.581Z,79.90
2019-02-17T00:24:43.640Z,80.15
2019-02-17T00:27:15.468Z,80.27
2019-02-17T00:29:47.219Z,78.98
2019-02-17T00:32:19.115Z,78.27
2019-02-17T00:34:50.959Z,78.60
2019-02-17T00:37:22.974Z,78.91
2019-02-17T00:39:54.720Z,79.15
2019-02-17T00:42:26.796Z,79.25
2019-02-17T00:44:58.541Z,80.22
2019-02-17T00:47:30.357Z,80.73
2019-02-17T00:50:02.098Z,83.48
2019-02-17T00:52:33.864Z,83.56
2019-02-17T00:55:05.866Z,83.94
2019-02-17T00:57:37.702Z,81.49
2019-02-17T01:00:11.096Z,81.06
2019-02-17T01:02:43.003Z,80.01
2019-02-17T01:05:14.886Z,79.32
2019-02-17T01:07:46.649Z,79.06
2019-02-17T01:10:18.502Z,78.34
2019-02-17T01:12:50.337Z,78.70
2019-02-17T01:15:22.077Z,78.67
2019-02-17T01:17:53.835Z,78.51
2019-02-17T01:20:26.262Z,78.87
2019-02-17T01:22:58.024Z,79.26
2019-02-17T01:25:29.901Z,79.36
2019-02-17T01:28:01.658Z,78.95
2019-02-17T01:30:33.562Z,79.18
2019-02-17T01:33:05.669Z,79.34
2019-02-17T01:35:37.598Z,79.77
2019-02-17T01:38:09.653Z,79.78
2019-02-17T01:40:41.475Z,79.85
2019-02-17T01:43:13.314Z,80.50
2019-02-17T01:45:45.132Z,80.56
2019-02-17T01:48:16.979Z,80.53
2019-02-17T01:50:48.889Z,80.93
2019-02-17T01:53:20.766Z,81.80
2019-02-17T01:55:52.517Z,82.07
2019-02-17T01:58:24.529Z,81.53
2019-02-17T02:00:56.686Z,80.64
2019-02-17T02:03:28.456Z,80.83
2019-02-17T02:06:00.275Z,80.71
2019-02-17T02:08:32.037Z,81.15
2019-02-17T02:11:03.870Z,81.35
2019-02-17T02:13:35.880Z,81.08
2019-02-17T02:16:09.418Z,80.02
2019-02-17T02:18:41.182Z,79.88
2019-02-17T02:21:13.014Z,79.43
2019-02-17T02:23:44.776Z,79.56
2019-02-17T02:26:16.534Z,79.64
2019-02-17T02:28:48.300Z,79.14
2019-02-17T02:31:20.128Z,79.41
2019-02-17T02:33:51.885Z,79.86
2019-02-17T02:36:23.707Z,79.39
2019-02-17T02:38:55.511Z,79.90
2019-02-17T02:41:34.114Z,79.75
2019-02-17T02:44:00.693Z,79.97
2019-02-17T02:46:32.518Z,80.33
2019-02-17T02:49:04.282Z,80.56
2019-02-17T02:51:36.101Z,80.80
2019-02-17T02:54:09.556Z,80.26
2019-02-17T02:56:41.389Z,80.07
2019-02-17T02:59:13.162Z,79.86
2019-02-17T03:01:44.973Z,79.28
2019-02-17T03:04:16.834Z,79.27
2019-02-17T03:06:55.223Z,78.90
2019-02-17T03:09:26.986Z,78.74
2019-02-17T03:11:58.742Z,78.90
2019-02-17T03:14:30.504Z,79.34
2019-02-17T03:17:02.573Z,79.22
2019-02-17T03:19:34.665Z,79.46
2019-02-17T03:22:06.484Z,79.50
2019-02-17T03:24:38.239Z,80.06
2019-02-17T03:27:10.072Z,80.56
2019-02-17T03:29:41.833Z,80.26
2019-02-17T03:32:13.597Z,80.67
2019-02-17T03:34:46.422Z,81.41
2019-02-17T03:37:18.426Z,82.04
2019-02-17T03:39:50.198Z,83.06
2019-02-17T03:42:22.319Z,82.86
2019-02-17T03:47:44.839Z,82.39
2019-02-17T03:50:16.872Z,82.27
2019-02-17T03:52:48.703Z,81.53
2019-02-17T03:55:20.614Z,81.65
2019-02-17T03:57:52.516Z,81.69
2019-02-17T04:00:24.429Z,80.89
2019-02-17T04:02:56.255Z,81.02
2019-02-17T04:05:28.266Z,80.76
2019-02-17T04:08:00.027Z,80.62
2019-02-17T04:10:31.867Z,79.86
2019-02-17T04:13:03.877Z,79.67
2019-02-17T04:15:35.976Z,79.90
2019-02-17T04:18:07.825Z,80.04
2019-02-17T04:20:39.679Z,80.33
2019-02-17T04:23:11.433Z,80.43
2019-02-17T04:25:43.331Z,79.48
2019-02-17T04:28:15.242Z,79.51
2019-02-17T04:30:47.077Z,79.55
2019-02-17T04:33:18.923Z,79.57
2019-02-17T04:35:50.698Z,79.93
2019-02-17T04:38:22.445Z,79.33
2019-02-17T04:40:54.207Z,79.21
2019-02-17T04:43:26.031Z,78.47
2019-02-17T04:45:57.881Z,78.68
2019-02-17T04:48:30.027Z,78.81
2019-02-17T04:51:01.861Z,79.51
2019-02-17T04:53:33.616Z,79.64
2019-02-17T04:56:05.542Z,79.71
2019-02-17T04:58:37.629Z,79.88
2019-02-17T05:01:09.897Z,79.46
2019-02-17T05:03:41.721Z,80.32
2019-02-17T05:06:13.637Z,79.99
2019-02-17T05:08:45.639Z,80.29
2019-02-17T05:11:17.757Z,80.09
2019-02-17T05:13:49.500Z,80.18
2019-02-17T05:16:21.262Z,80.69
2019-02-17T05:18:53.004Z,81.22
2019-02-17T05:21:24.768Z,81.48
2019-02-17T05:23:56.523Z,82.02
2019-02-17T05:26:28.358Z,81.95
2019-02-17T05:29:00.198Z,81.49
2019-02-17T05:31:32.035Z,80.94
2019-02-17T05:34:04.176Z,81.18
2019-02-17T05:36:36.183Z,80.80
2019-02-17T05:39:09.183Z,80.66
2019-02-17T05:41:40.944Z,81.08
2019-02-17T05:44:12.701Z,80.87
2019-02-17T05:46:44.465Z,80.61
2019-02-17T05:49:16.557Z,80.12
2019-02-17T05:51:48.326Z,80.25
2019-02-17T05:54:20.417Z,80.21
2019-02-17T05:56:52.183Z,79.29
2019-02-17T05:59:23.939Z,80.03
2019-02-17T06:01:55.714Z,79.68
2019-02-17T06:04:27.813Z,79.58
2019-02-17T06:06:59.829Z,79.87
2019-02-17T06:09:31.582Z,79.43
2019-02-17T06:12:03.421Z,78.93
2019-02-17T06:14:35.323Z,79.20
2019-02-17T06:17:07.339Z,79.13
2019-02-17T06:19:39.091Z,79.17
2019-02-17T06:22:10.939Z,79.43
2019-02-17T06:24:42.949Z,79.23
2019-02-17T06:27:14.715Z,79.47
2019-02-17T06:29:48.478Z,79.80
2019-02-17T06:32:19.922Z,79.82
2019-02-17T06:34:52.199Z,80.05
2019-02-17T06:37:24.302Z,80.26
2019-02-17T06:39:56.310Z,80.21
2019-02-17T06:42:28.154Z,81.29
2019-02-17T06:45:00.338Z,81.44
2019-02-17T06:47:34.616Z,81.53
2019-02-17T06:50:07.555Z,81.32
2019-02-17T06:52:39.415Z,81.14
2019-02-17T06:55:28.703Z,80.95
2019-02-17T06:58:00.468Z,81.04
2019-02-17T07:00:34.963Z,81.16
2019-02-17T07:03:06.996Z,80.67
2019-02-17T07:05:56.745Z,80.92
2019-02-17T07:08:28.910Z,81.25
2019-02-17T07:11:00.828Z,81.07
2019-02-17T07:13:32.731Z,81.61
2019-02-17T07:16:04.635Z,81.64
2019-02-17T07:18:36.474Z,82.06
2019-02-17T07:21:09.184Z,82.23
2019-02-17T07:23:41.211Z,82.27
2019-02-17T07:26:12.960Z,82.47
2019-02-17T07:28:44.733Z,82.32
2019-02-17T07:31:16.472Z,83.11
2019-02-17T07:33:48.314Z,83.28
2019-02-17T07:36:21.948Z,83.39
2019-02-17T07:38:53.614Z,83.59
2019-02-17T07:41:25.446Z,83.95
2019-02-17T07:43:57.203Z,84.17
2019-02-17T07:46:28.958Z,84.32
2019-02-17T07:49:00.715Z,82.81
2019-02-17T07:51:32.453Z,84.99
2019-02-17T07:54:04.219Z,83.85
2019-02-17T07:56:36.471Z,83.79
2019-02-17T07:59:09.458Z,83.87
2019-02-17T08:01:45.301Z,83.32
2019-02-17T08:04:16.660Z,84.39
2019-02-17T08:06:48.473Z,84.16
2019-02-17T08:09:20.506Z,84.19
2019-02-17T08:11:52.248Z,84.40
2019-02-17T08:14:24.007Z,82.49
2019-02-17T08:16:55.898Z,82.09
2019-02-17T08:19:28.018Z,82.33
2019-02-17T08:21:59.758Z,83.08
2019-02-17T08:24:31.772Z,81.68
2019-02-17T08:27:04.662Z,81.02
2019-02-17T08:29:36.510Z,82.02
2019-02-17T08:32:08.317Z,83.14
2019-02-17T08:34:40.105Z,84.68
2019-02-17T08:37:11.835Z,83.76
2019-02-17T08:39:43.673Z,84.82
2019-02-17T08:42:15.406Z,84.15
2019-02-17T08:44:47.147Z,83.88
2019-02-17T08:47:18.997Z,82.34
2019-02-17T08:49:51.082Z,84.47
2019-02-17T08:52:22.889Z,81.89
2019-02-17T08:54:54.959Z,80.85
2019-02-17T08:57:26.782Z,81.37
2019-02-17T08:59:58.523Z,82.25
2019-02-17T09:02:30.282Z,82.51
2019-02-17T09:05:02.019Z,83.97
2019-02-17T09:07:34.030Z,81.32
2019-02-17T09:10:07.120Z,81.75
2019-02-17T09:12:38.936Z,82.55
2019-02-17T09:15:11.933Z,82.34
2019-02-17T09:18:15.424Z,82.58
2019-02-17T09:20:24.044Z,81.84
2019-02-17T09:22:55.781Z,81.88
2019-02-17T09:25:27.617Z,83.56
2019-02-17T09:27:59.369Z,82.64
2019-02-17T09:30:31.119Z,83.37
2019-02-17T09:33:02.933Z,82.54
2019-02-17T09:35:34.703Z,82.51
2019-02-17T09:38:06.443Z,82.26
2019-02-17T09:40:38.270Z,81.82
2019-02-17T09:43:10.257Z,84.38
2019-02-17T09:45:41.999Z,82.45
2019-02-17T09:48:13.742Z,82.81
2019-02-17T09:50:45.596Z,81.77
2019-02-17T09:53:17.424Z,80.25
2019-02-17T09:55:49.279Z,79.40
2019-02-17T09:58:21.020Z,78.41
2019-02-17T10:00:52.770Z,78.04
2019-02-17T10:03:24.577Z,78.27
2019-02-17T10:05:56.382Z,77.42
2019-02-17T10:08:28.152Z,77.23
2019-02-17T10:11:00.304Z,76.87
2019-02-17T10:13:32.342Z,76.22
2019-02-17T10:16:04.243Z,75.75
2019-02-17T10:18:36.357Z,75.23
2019-02-17T10:21:08.242Z,73.87
2019-02-17T10:23:40.059Z,72.09
2019-02-17T10:26:11.808Z,70.41
2019-02-17T10:28:43.631Z,68.72
2019-02-17T10:31:15.462Z,66.58
2019-02-17T10:33:47.282Z,67.26
2019-02-17T10:36:19.187Z,67.56
2019-02-17T10:38:50.952Z,65.96
2019-02-17T10:41:22.707Z,65.82
2019-02-17T10:43:54.453Z,66.67
2019-02-17T10:46:26.188Z,63.67
2019-02-17T10:48:59.406Z,63.58
2019-02-17T10:51:31.553Z,65.22
2019-02-17T10:54:03.560Z,63.66
2019-02-17T10:56:35.296Z,63.61
2019-02-17T10:59:07.197Z,64.58
2019-02-17T11:01:38.932Z,63.09
2019-02-17T11:04:12.056Z,63.01
2019-02-17T11:06:43.939Z,56.58
2019-02-17T11:09:22.886Z,58.91
2019-02-17T11:11:55.145Z,56.46
2019-02-17T11:14:27.220Z,57.46
2019-02-17T11:16:58.981Z,55.36
2019-02-17T11:19:30.809Z,54.06
2019-02-17T11:22:02.582Z,54.19
2019-02-17T11:24:34.579Z,50.76
2019-02-17T11:27:06.335Z,50.39
2019-02-17T11:29:38.419Z,51.96
2019-02-17T11:32:10.268Z,52.99
2019-02-17T11:34:42.019Z,54.18
2019-02-17T11:37:13.763Z,53.35
2019-02-17T11:39:45.770Z,53.96
2019-02-17T11:42:17.866Z,54.06
2019-02-17T11:44:49.767Z,50.21
2019-02-17T11:47:21.860Z,51.44
2019-02-17T11:49:53.682Z,49.73
2019-02-17T11:52:25.448Z,48.51
2019-02-17T11:54:57.185Z,45.60
2019-02-17T11:57:29.338Z,48.42
2019-02-17T12:00:01.079Z,48.65
2019-02-17T12:02:32.974Z,45.83
2019-02-17T12:05:05.112Z,47.17
2019-02-17T12:07:36.882Z,46.50
2019-02-17T12:10:10.869Z,47.86
2019-02-17T12:12:42.626Z,46.56
2019-02-17T12:15:15.140Z,46.01
2019-02-17T12:17:46.895Z,46.00
2019-02-17T12:20:37.761Z,48.25
2019-02-17T12:23:22.601Z,44.73
2019-02-17T12:25:59.002Z,45.97
2019-02-17T12:28:35.219Z,43.17
2019-02-17T12:31:07.214Z,40.89
2019-02-17T12:33:38.957Z,42.02
2019-02-17T12:36:10.780Z,39.55
2019-02-17T12:38:42.524Z,36.56
2019-02-17T12:41:14.507Z,38.87
2019-02-17T12:43:46.258Z,40.14
2019-02-17T12:46:18.251Z,37.80
2019-02-17T12:48:49.991Z,39.42
2019-02-17T12:51:21.730Z,39.17
2019-02-17T12:53:53.478Z,37.25
2019-02-17T12:56:25.319Z,37.69
2019-02-17T12:58:57.075Z,36.49
2019-02-17T13:01:29.143Z,37.75
2019-02-17T13:04:00.887Z,36.37
2019-02-17T13:06:32.628Z,39.11
2019-02-17T13:09:06.532Z,34.59
2019-02-17T13:11:38.336Z,36.82
2019-02-17T13:14:10.084Z,38.06
2019-02-17T13:16:42.217Z,36.19
2019-02-17T13:19:13.976Z,34.46
2019-02-17T13:21:45.962Z,34.66
2019-02-17T13:24:17.724Z,32.43
2019-02-17T13:26:49.457Z,32.34
2019-02-17T13:29:21.293Z,33.78
2019-02-17T13:31:53.021Z,34.46
2019-02-17T13:34:24.844Z,33.18
2019-02-17T13:36:56.911Z,32.08
2019-02-17T13:39:28.914Z,34.50
2019-02-17T13:42:01.659Z,35.76
2019-02-17T13:44:33.403Z,33.97
2019-02-17T13:47:05.144Z,33.76
2019-02-17T13:49:36.978Z,34.67
2019-02-17T13:52:09.977Z,34.08
2019-02-17T13:54:41.751Z,33.75
2019-02-17T13:57:13.743Z,34.85
2019-02-17T13:59:45.575Z,33.99
2019-02-17T14:02:17.403Z,32.92
2019-02-17T14:04:49.471Z,33.47
2019-02-17T14:07:21.270Z,34.40
2019-02-17T14:09:53.082Z,32.91
2019-02-17T14:12:24.845Z,32.82
2019-02-17T14:14:56.632Z,32.39
2019-02-17T14:17:28.476Z,32.09
2019-02-17T14:20:00.473Z,31.96
2019-02-17T14:22:32.619Z,31.73
2019-02-17T14:25:04.763Z,32.80
2019-02-17T14:27:36.594Z,32.12
2019-02-17T14:30:11.685Z,32.69
2019-02-17T14:32:43.664Z,31.35
2019-02-17T14:35:15.611Z,31.03
2019-02-17T14:37:47.364Z,32.92
2019-02-17T14:40:19.152Z,30.04
2019-02-17T14:42:50.937Z,32.37
2019-02-17T14:45:23.182Z,32.49
2019-02-17T14:47:55.015Z,33.26
2019-02-17T14:50:26.778Z,32.95
2019-02-17T14:52:58.874Z,31.75
2019-02-17T14:55:30.682Z,32.00
2019-02-17T14:58:05.395Z,32.00
2019-02-17T15:00:36.281Z,32.35
2019-02-17T15:03:08.172Z,32.90
2019-02-17T15:05:40.266Z,31.88
2019-02-17T15:08:12.054Z,32.27
2019-02-17T15:10:43.820Z,32.05
2019-02-17T15:13:15.689Z,31.33
2019-02-17T15:15:47.571Z,31.61
2019-02-17T15:18:19.367Z,32.35
2019-02-17T15:20:51.223Z,34.20
2019-02-17T15:23:23.091Z,37.03
2019-02-17T15:25:54.874Z,39.45
2019-02-17T15:28:26.642Z,38.65
2019-02-17T15:30:58.487Z,39.12
2019-02-17T15:33:30.276Z,38.60
2019-02-17T15:36:02.053Z,38.26
2019-02-17T15:38:34.794Z,38.89
2019-02-17T15:41:06.742Z,39.35
2019-02-17T15:43:38.589Z,39.87
2019-02-17T15:46:10.388Z,39.69
2019-02-17T15:48:42.234Z,39.46
2019-02-17T15:51:14.008Z,40.22
2019-02-17T15:53:45.770Z,40.90
2019-02-17T15:56:17.659Z,42.11
2019-02-17T15:58:49.423Z,43.56
2019-02-17T16:01:21.660Z,43.76
2019-02-17T16:03:53.502Z,44.12
2019-02-17T16:06:25.288Z,44.69
2019-02-17T16:08:57.139Z,45.51
2019-02-17T16:11:29.078Z,45.91
2019-02-17T16:14:00.845Z,46.37
2019-02-17T16:16:32.859Z,47.18
2019-02-17T16:19:04.727Z,47.60
2019-02-17T16:21:36.513Z,47.62
2019-02-17T16:24:09.295Z,48.06
2019-02-17T16:26:41.308Z,48.69
2019-02-17T16:29:13.321Z,49.29
2019-02-17T16:31:45.157Z,50.07
2019-02-17T16:34:16.915Z,50.86
2019-02-17T16:36:48.693Z,50.76
2019-02-17T16:39:20.459Z,50.81
2019-02-17T16:41:52.230Z,51.04
2019-02-17T16:44:24.074Z,51.77
2019-02-17T16:46:55.932Z,52.44
2019-02-17T16:49:27.676Z,53.10
2019-02-17T16:51:59.526Z,53.53
2019-02-17T16:54:31.279Z,54.00
2019-02-17T16:57:03.075Z,54.52
2019-02-17T16:59:34.916Z,54.81
2019-02-17T17:02:06.706Z,55.06
2019-02-17T17:04:47.866Z,55.67
2019-02-17T17:07:12.175Z,56.23
2019-02-17T17:09:44.484Z,56.68
2019-02-17T17:12:16.273Z,57.19
2019-02-17T17:14:48.121Z,57.74
2019-02-17T17:17:19.910Z,58.07
2019-02-17T17:19:51.749Z,58.60
2019-02-17T17:22:23.534Z,58.99
2019-02-17T17:24:55.306Z,59.29
2019-02-17T17:27:27.170Z,59.77
2019-02-17T17:29:59.279Z,60.02
2019-02-17T17:32:31.072Z,60.29
2019-02-17T17:35:02.842Z,60.42
2019-02-17T17:37:34.799Z,60.44
2019-02-17T17:40:10.090Z,60.77
2019-02-17T17:42:42.015Z,61.09
2019-02-17T17:45:14.490Z,61.34
2019-02-17T17:47:46.403Z,61.76
2019-02-17T17:50:18.383Z,62.08
2019-02-17T17:52:50.571Z,61.86
2019-02-17T17:55:22.392Z,61.83
2019-02-17T17:57:54.330Z,62.30
2019-02-17T18:00:27.465Z,62.41
2019-02-17T18:02:59.287Z,62.55
2019-02-17T18:05:31.104Z,62.94
2019-02-17T18:08:02.943Z,63.22
2019-02-17T18:10:34.770Z,63.18
2019-02-17T18:13:06.526Z,62.91
2019-02-17T18:15:38.265Z,62.83
2019-02-17T18:18:10.102Z,63.05
2019-02-17T18:20:41.869Z,63.03
2019-02-17T18:23:14.029Z,62.82
2019-02-17T18:25:45.998Z,63.35
2019-02-17T18:28:18.254Z,63.51
2019-02-17T18:30:50.387Z,63.48
2019-02-17T18:33:22.168Z,63.96
2019-02-17T18:35:53.932Z,64.48
2019-02-17T18:38:25.778Z,64.09
2019-02-17T18:40:57.871Z,64.63
2019-02-17T18:43:29.971Z,64.87
2019-02-17T18:46:01.798Z,64.92
2019-02-17T18:48:33.560Z,64.81
2019-02-17T18:51:05.545Z,65.45
2019-02-17T18:53:37.312Z,65.73
2019-02-17T18:56:09.924Z,65.92
2019-02-17T18:58:41.849Z,65.60
2019-02-17T19:01:13.857Z,65.64
2019-02-17T19:03:45.630Z,65.11
2019-02-17T19:06:17.709Z,65.69
2019-02-17T19:08:49.814Z,65.91
2019-02-17T19:11:21.648Z,66.18
2019-02-17T19:13:53.562Z,65.63
2019-02-17T19:16:25.383Z,65.79
2019-02-17T19:18:57.179Z,66.31
2019-02-17T19:21:47.483Z,66.18
2019-02-17T19:24:31.486Z,66.42
2019-02-17T19:27:22.444Z,66.50
2019-02-17T19:30:06.330Z,66.55
2019-02-17T19:32:57.393Z,67.20
2019-02-17T19:35:42.450Z,67.25
2019-02-17T19:38:26.265Z,67.52
2019-02-17T19:41:17.499Z,67.41
2019-02-17T19:44:01.028Z,67.54
2019-02-17T19:46:52.005Z,67.41
2019-02-17T19:49:36.041Z,66.89
2019-02-17T19:52:27.001Z,67.99
2019-02-17T19:55:11.279Z,67.44
2019-02-17T19:58:02.252Z,67.49
2019-02-17T20:00:45.514Z,67.86
2019-02-17T20:03:55.493Z,68.49
2019-02-17T20:06:39.274Z,68.16
2019-02-17T20:09:23.474Z,68.95
2019-02-17T20:12:07.256Z,68.89
2019-02-17T20:14:52.183Z,69.19
2019-02-17T20:17:44.472Z,69.31
2019-02-17T20:20:16.777Z,69.03
2019-02-17T20:23:09.334Z,68.89
2019-02-17T20:25:53.018Z,68.41
2019-02-17T20:28:44.003Z,68.71
2019-02-17T20:31:27.326Z,69.57
2019-02-17T20:34:11.074Z,70.06
2019-02-17T20:37:02.097Z,70.25
2019-02-17T20:39:45.671Z,70.40
2019-02-17T20:42:36.708Z,71.01
2019-02-17T20:45:20.696Z,70.78
2019-02-17T20:48:11.811Z,71.25
2019-02-17T20:50:56.049Z,71.99
2019-02-17T20:56:50.955Z,72.81
2019-02-17T20:59:41.950Z,73.63
2019-02-17T21:02:25.818Z,72.37
2019-02-17T21:05:16.877Z,73.03
2019-02-17T21:08:00.898Z,73.04
2019-02-17T21:10:53.459Z,72.52
2019-02-17T21:13:36.731Z,71.78
2019-02-17T21:16:27.799Z,71.89
2019-02-17T21:19:11.891Z,71.33
2019-02-17T21:22:03.132Z,71.46
2019-02-17T21:24:47.028Z,71.47
2019-02-17T21:27:39.035Z,72.54
2019-02-17T21:30:23.313Z,71.58
2019-02-17T21:33:14.588Z,72.34
2019-02-17T21:35:58.877Z,72.61
2019-02-17T21:39:09.367Z,72.50
2019-02-17T21:41:53.022Z,73.86
2019-02-17T21:44:44.275Z,73.45
2019-02-17T21:47:28.327Z,73.44
2019-02-17T21:50:12.558Z,73.14
2019-02-17T21:53:03.530Z,72.27
2019-02-17T21:55:47.473Z,72.70
2019-02-17T21:58:38.440Z,73.03
2019-02-17T22:01:22.954Z,73.02
2019-02-17T22:04:13.885Z,73.92
2019-02-17T22:06:58.002Z,74.52
2019-02-17T22:09:41.748Z,74.44
2019-02-17T22:12:32.790Z,73.87
2019-02-17T22:15:16.636Z,74.38
2019-02-17T22:18:00.353Z,74.34
2019-02-17T22:20:44.520Z,74.71
2019-02-17T22:23:35.483Z,74.88
2019-02-17T22:26:19.074Z,73.98
2019-02-17T22:32:12.266Z,74.02
2019-02-17T22:35:03.367Z,74.37
2019-02-17T22:37:47.393Z,74.65
2019-02-17T22:40:57.876Z,74.81
2019-02-17T22:43:41.964Z,75.54
2019-02-17T22:46:25.478Z,75.78
2019-02-17T22:49:16.436Z,75.21
2019-02-17T22:51:59.774Z,75.14
2019-02-17T22:54:50.726Z,74.78
2019-02-17T22:57:34.772Z,74.22
2019-02-17T23:01:03.815Z,74.80
2019-02-17T23:03:55.556Z,75.28
2019-02-17T23:06:39.433Z,75.10
2019-02-17T23:09:23.624Z,76.00
2019-02-17T23:12:14.921Z,76.31
2019-02-17T23:14:58.222Z,76.08
2019-02-17T23:17:49.555Z,76.00
2019-02-17T23:20:33.517Z,76.29
2019-02-17T23:23:24.547Z,76.55
2019-02-17T23:25:56.359Z,77.26
2019-02-17T23:28:47.312Z,76.22
2019-02-17T23:31:31.071Z,76.27
2019-02-17T23:34:14.905Z,76.58
2019-02-17T23:37:03.994Z,76.32
2019-02-17T23:39:51.671Z,75.89
2019-02-17T23:42:34.988Z,75.38
2019-02-17T23:45:26.003Z,74.91
2019-02-17T23:48:09.263Z,75.69
2019-02-17T23:51:00.845Z,76.65
2019-02-17T23:53:44.431Z,76.12
2019-02-17T23:56:35.458Z,76.30
2019-02-17T23:59:19.049Z,76.31
